sensor_id;sensor_type;location;lat;lon;timestamp;pressure;altitude;pressure_sealevel;temperature;humidity
16777;BME280;8505;49.456;8.164;2023-05-22T00:01:51;99314.31;;;15.67;82.55
16777;BME280;8505;49.456;8.164;2023-05-22T00:04:21;99313.63;;;15.78;82.30
16777;BME280;8505;49.456;8.164;2023-05-22T00:06:49;99313.63;;;15.78;81.93
16777;BME280;8505;49.456;8.164;2023-05-22T00:09:17;99317.81;;;15.67;82.42
16777;BME280;8505;49.456;8.164;2023-05-22T00:11:45;99309.78;;;15.67;82.31
16777;BME280;8505;49.456;8.164;2023-05-22T00:14:14;99310.25;;;15.58;82.75
16777;BME280;8505;49.456;8.164;2023-05-22T00:16:43;99315.16;;;15.61;82.69
16777;BME280;8505;49.456;8.164;2023-05-22T00:19:11;99307.78;;;15.56;83.03
16777;BME280;8505;49.456;8.164;2023-05-22T00:21:42;99309.44;;;15.51;83.39
16777;BME280;8505;49.456;8.164;2023-05-22T00:24:11;99307.41;;;15.53;83.31
16777;BME280;8505;49.456;8.164;2023-05-22T00:26:38;99308.03;;;15.48;83.45
16777;BME280;8505;49.456;8.164;2023-05-22T00:29:06;99313.38;;;15.42;83.51
16777;BME280;8505;49.456;8.164;2023-05-22T00:31:34;99312.56;;;15.41;83.73
16777;BME280;8505;49.456;8.164;2023-05-22T00:34:03;99310.56;;;15.36;84.09
16777;BME280;8505;49.456;8.164;2023-05-22T00:36:31;99312.19;;;15.31;84.27
16777;BME280;8505;49.456;8.164;2023-05-22T00:38:59;99309.31;;;15.32;84.12
16777;BME280;8505;49.456;8.164;2023-05-22T00:41:27;99305.81;;;15.32;84.05
16777;BME280;8505;49.456;8.164;2023-05-22T00:43:55;99309.53;;;15.31;84.44
16777;BME280;8505;49.456;8.164;2023-05-22T00:46:22;99310.16;;;15.26;84.22
16777;BME280;8505;49.456;8.164;2023-05-22T00:48:50;99304.03;;;15.19;84.96
16777;BME280;8505;49.456;8.164;2023-05-22T00:51:20;99302.97;;;15.27;84.45
16777;BME280;8505;49.456;8.164;2023-05-22T00:53:49;99309.16;;;15.21;84.68
16777;BME280;8505;49.456;8.164;2023-05-22T00:56:17;99309.78;;;15.23;84.60
16777;BME280;8505;49.456;8.164;2023-05-22T00:58:45;99310.81;;;15.22;84.44
16777;BME280;8505;49.456;8.164;2023-05-22T01:01:13;99317.19;;;15.14;84.98
16777;BME280;8505;49.456;8.164;2023-05-22T01:03:43;99321.69;;;15.14;84.95
16777;BME280;8505;49.456;8.164;2023-05-22T01:06:13;99315.53;;;15.13;84.94
16777;BME280;8505;49.456;8.164;2023-05-22T01:08:45;99319.69;;;15.09;85.13
16777;BME280;8505;49.456;8.164;2023-05-22T01:11:17;99323.56;;;15.07;85.32
16777;BME280;8505;49.456;8.164;2023-05-22T01:13:53;99320.94;;;15.00;85.32
16777;BME280;8505;49.456;8.164;2023-05-22T01:16:33;99323.41;;;14.95;85.78
16777;BME280;8505;49.456;8.164;2023-05-22T01:19:10;99322.41;;;14.89;85.96
16777;BME280;8505;49.456;8.164;2023-05-22T01:21:46;99315.25;;;14.77;86.58
16777;BME280;8505;49.456;8.164;2023-05-22T01:24:40;99310.75;;;14.77;86.65
16777;BME280;8505;49.456;8.164;2023-05-22T01:27:23;99319.78;;;14.70;86.88
16777;BME280;8505;49.456;8.164;2023-05-22T01:30:09;99314.44;;;14.63;87.50
16777;BME280;8505;49.456;8.164;2023-05-22T01:32:42;99315.69;;;14.74;86.91
16777;BME280;8505;49.456;8.164;2023-05-22T01:35:14;99319.53;;;14.84;86.62
16777;BME280;8505;49.456;8.164;2023-05-22T01:37:44;99322.81;;;15.00;85.90
16777;BME280;8505;49.456;8.164;2023-05-22T01:40:12;99323.78;;;15.12;85.13
16777;BME280;8505;49.456;8.164;2023-05-22T01:42:41;99324.00;;;15.10;84.89
16777;BME280;8505;49.456;8.164;2023-05-22T01:45:09;99324.22;;;15.02;85.26
16777;BME280;8505;49.456;8.164;2023-05-22T01:47:37;99321.56;;;14.95;85.18
16777;BME280;8505;49.456;8.164;2023-05-22T01:50:08;99328.75;;;14.95;85.76
16777;BME280;8505;49.456;8.164;2023-05-22T01:52:40;99329.38;;;14.90;86.12
16777;BME280;8505;49.456;8.164;2023-05-22T01:55:16;99336.56;;;14.90;85.85
16777;BME280;8505;49.456;8.164;2023-05-22T01:57:51;99321.34;;;14.97;85.67
16777;BME280;8505;49.456;8.164;2023-05-22T02:00:24;99332.63;;;15.06;85.05
16777;BME280;8505;49.456;8.164;2023-05-22T02:03:06;99331.16;;;15.10;84.98
16777;BME280;8505;49.456;8.164;2023-05-22T02:05:38;99330.31;;;15.16;84.70
16777;BME280;8505;49.456;8.164;2023-05-22T02:08:07;99335.84;;;15.21;84.14
16777;BME280;8505;49.456;8.164;2023-05-22T02:10:36;99331.81;;;15.05;85.10
16777;BME280;8505;49.456;8.164;2023-05-22T02:13:05;99326.69;;;14.97;85.44
16777;BME280;8505;49.456;8.164;2023-05-22T02:15:33;99327.50;;;14.97;85.25
16777;BME280;8505;49.456;8.164;2023-05-22T02:18:02;99324.25;;;14.82;86.28
16777;BME280;8505;49.456;8.164;2023-05-22T02:20:29;99322.66;;;14.68;86.80
16777;BME280;8505;49.456;8.164;2023-05-22T02:22:59;99326.75;;;14.57;87.69
16777;BME280;8505;49.456;8.164;2023-05-22T02:25:26;99328.41;;;14.58;87.55
16777;BME280;8505;49.456;8.164;2023-05-22T02:27:54;99321.25;;;14.52;87.79
16777;BME280;8505;49.456;8.164;2023-05-22T02:30:22;99323.53;;;14.42;88.32
16777;BME280;8505;49.456;8.164;2023-05-22T02:32:50;99318.59;;;14.39;88.59
16777;BME280;8505;49.456;8.164;2023-05-22T02:35:18;99325.75;;;14.45;88.54
16777;BME280;8505;49.456;8.164;2023-05-22T02:37:46;99316.53;;;14.48;88.75
16777;BME280;8505;49.456;8.164;2023-05-22T02:40:17;99324.13;;;14.44;87.98
16777;BME280;8505;49.456;8.164;2023-05-22T02:42:47;99316.13;;;14.44;88.38
16777;BME280;8505;49.456;8.164;2023-05-22T02:45:16;99318.19;;;14.42;88.70
16777;BME280;8505;49.456;8.164;2023-05-22T02:47:44;99314.91;;;14.40;88.75
16777;BME280;8505;49.456;8.164;2023-05-22T02:50:11;99317.38;;;14.42;88.61
16777;BME280;8505;49.456;8.164;2023-05-22T02:52:40;99313.25;;;14.52;87.98
16777;BME280;8505;49.456;8.164;2023-05-22T02:55:08;99317.72;;;14.72;87.64
16777;BME280;8505;49.456;8.164;2023-05-22T02:57:37;99320.59;;;14.77;86.43
16777;BME280;8505;49.456;8.164;2023-05-22T03:00:06;99329.22;;;14.59;86.73
16777;BME280;8505;49.456;8.164;2023-05-22T03:02:37;99324.91;;;14.65;87.04
16777;BME280;8505;49.456;8.164;2023-05-22T03:05:05;99331.28;;;14.50;87.51
16777;BME280;8505;49.456;8.164;2023-05-22T03:07:33;99333.31;;;14.35;88.18
16777;BME280;8505;49.456;8.164;2023-05-22T03:10:01;99339.47;;;14.23;88.87
16777;BME280;8505;49.456;8.164;2023-05-22T03:12:28;99325.13;;;14.24;88.93
16777;BME280;8505;49.456;8.164;2023-05-22T03:14:58;99333.31;;;14.15;89.05
16777;BME280;8505;49.456;8.164;2023-05-22T03:17:25;99335.16;;;14.08;89.63
16777;BME280;8505;49.456;8.164;2023-05-22T03:19:54;99345.63;;;14.16;89.18
16777;BME280;8505;49.456;8.164;2023-05-22T03:22:21;99339.06;;;14.06;89.78
16777;BME280;8505;49.456;8.164;2023-05-22T03:24:49;99337.81;;;14.02;89.89
16777;BME280;8505;49.456;8.164;2023-05-22T03:27:17;99338.63;;;14.09;89.81
16777;BME280;8505;49.456;8.164;2023-05-22T03:29:45;99338.25;;;14.05;89.96
16777;BME280;8505;49.456;8.164;2023-05-22T03:32:14;99346.03;;;14.07;89.86
16777;BME280;8505;49.456;8.164;2023-05-22T03:34:42;99345.19;;;14.00;90.25
16777;BME280;8505;49.456;8.164;2023-05-22T03:37:10;99342.53;;;13.93;90.33
16777;BME280;8505;49.456;8.164;2023-05-22T03:39:37;99338.00;;;13.87;90.97
16777;BME280;8505;49.456;8.164;2023-05-22T03:42:05;99342.91;;;13.90;90.76
16777;BME280;8505;49.456;8.164;2023-05-22T03:44:33;99342.09;;;13.96;90.69
16777;BME280;8505;49.456;8.164;2023-05-22T03:47:01;99339.06;;;14.06;90.29
16777;BME280;8505;49.456;8.164;2023-05-22T03:49:30;99340.28;;;14.10;90.05
16777;BME280;8505;49.456;8.164;2023-05-22T03:51:58;99338.44;;;14.10;90.20
16777;BME280;8505;49.456;8.164;2023-05-22T03:54:26;99332.94;;;14.18;89.48
16777;BME280;8505;49.456;8.164;2023-05-22T03:56:54;99341.09;;;14.10;89.97
16777;BME280;8505;49.456;8.164;2023-05-22T03:59:21;99339.06;;;14.06;90.07
16777;BME280;8505;49.456;8.164;2023-05-22T04:01:49;99334.13;;;14.03;90.42
16777;BME280;8505;49.456;8.164;2023-05-22T04:04:17;99342.31;;;14.08;90.08
16777;BME280;8505;49.456;8.164;2023-05-22T04:06:46;99336.59;;;14.04;90.61
16777;BME280;8505;49.456;8.164;2023-05-22T04:09:14;99340.69;;;14.13;89.89
16777;BME280;8505;49.456;8.164;2023-05-22T04:11:44;99346.22;;;14.12;89.67
16777;BME280;8505;49.456;8.164;2023-05-22T04:14:11;99352.56;;;14.04;90.28
16777;BME280;8505;49.456;8.164;2023-05-22T04:16:39;99346.81;;;14.14;90.01
16777;BME280;8505;49.456;8.164;2023-05-22T04:19:07;99341.50;;;14.14;89.84
16777;BME280;8505;49.456;8.164;2023-05-22T04:21:35;99345.22;;;14.13;89.79
16777;BME280;8505;49.456;8.164;2023-05-22T04:24:05;99340.28;;;14.10;89.82
16777;BME280;8505;49.456;8.164;2023-05-22T04:26:33;99345.59;;;14.10;89.90
16777;BME280;8505;49.456;8.164;2023-05-22T04:29:01;99345.63;;;14.16;89.63
16777;BME280;8505;49.456;8.164;2023-05-22T04:31:29;99354.22;;;14.05;90.18
16777;BME280;8505;49.456;8.164;2023-05-22T04:33:57;99347.25;;;14.11;90.42
16777;BME280;8505;49.456;8.164;2023-05-22T04:36:25;99361.59;;;14.16;89.90
16777;BME280;8505;49.456;8.164;2023-05-22T04:38:54;99354.22;;;14.25;89.66
16777;BME280;8505;49.456;8.164;2023-05-22T04:41:23;99362.00;;;14.33;89.04
16777;BME280;8505;49.456;8.164;2023-05-22T04:43:52;99364.88;;;14.25;88.95
16777;BME280;8505;49.456;8.164;2023-05-22T04:46:20;99365.72;;;14.26;89.09
16777;BME280;8505;49.456;8.164;2023-05-22T04:48:48;99361.81;;;14.28;89.21
16777;BME280;8505;49.456;8.164;2023-05-22T04:51:16;99359.13;;;14.35;88.68
16777;BME280;8505;49.456;8.164;2023-05-22T04:53:44;99364.50;;;14.48;87.99
16777;BME280;8505;49.456;8.164;2023-05-22T04:56:14;99364.06;;;14.51;87.78
16777;BME280;8505;49.456;8.164;2023-05-22T04:59:01;99369.41;;;14.71;87.18
16777;BME280;8505;49.456;8.164;2023-05-22T05:01:30;99371.66;;;14.61;87.58
16777;BME280;8505;49.456;8.164;2023-05-22T05:03:59;99366.53;;;14.59;87.96
16777;BME280;8505;49.456;8.164;2023-05-22T05:06:27;99370.22;;;14.65;87.58
16777;BME280;8505;49.456;8.164;2023-05-22T05:08:54;99374.97;;;14.63;87.87
16777;BME280;8505;49.456;8.164;2023-05-22T05:11:22;99377.59;;;14.76;87.07
16777;BME280;8505;49.456;8.164;2023-05-22T05:13:50;99379.22;;;14.90;87.25
16777;BME280;8505;49.456;8.164;2023-05-22T05:16:19;99373.28;;;14.81;86.73
16777;BME280;8505;49.456;8.164;2023-05-22T05:18:48;99375.75;;;14.76;86.84
16777;BME280;8505;49.456;8.164;2023-05-22T05:21:17;99383.72;;;14.83;86.60
16777;BME280;8505;49.456;8.164;2023-05-22T05:23:45;99375.50;;;14.97;86.51
16777;BME280;8505;49.456;8.164;2023-05-22T05:26:13;99381.44;;;15.06;85.21
16777;BME280;8505;49.456;8.164;2023-05-22T05:28:41;99377.72;;;15.07;85.11
16777;BME280;8505;49.456;8.164;2023-05-22T05:31:09;99385.53;;;15.15;84.79
16777;BME280;8505;49.456;8.164;2023-05-22T05:33:38;99377.88;;;15.25;84.81
16777;BME280;8505;49.456;8.164;2023-05-22T05:36:07;99383.00;;;15.27;84.93
16777;BME280;8505;49.456;8.164;2023-05-22T05:38:35;99378.47;;;15.34;84.44
16777;BME280;8505;49.456;8.164;2023-05-22T05:41:03;99382.34;;;15.38;84.45
16777;BME280;8505;49.456;8.164;2023-05-22T05:43:31;99383.19;;;15.38;84.65
16777;BME280;8505;49.456;8.164;2023-05-22T05:45:59;99385.19;;;15.50;83.78
16777;BME280;8505;49.456;8.164;2023-05-22T05:48:27;99385.78;;;15.65;83.38
16777;BME280;8505;49.456;8.164;2023-05-22T05:50:56;99388.72;;;15.88;82.66
16777;BME280;8505;49.456;8.164;2023-05-22T05:53:23;99385.34;;;16.06;81.21
16777;BME280;8505;49.456;8.164;2023-05-22T05:55:52;99385.84;;;16.21;81.19
16777;BME280;8505;49.456;8.164;2023-05-22T05:58:19;99383.97;;;16.53;79.85
16777;BME280;8505;49.456;8.164;2023-05-22T06:00:47;99388.50;;;16.52;79.65
16777;BME280;8505;49.456;8.164;2023-05-22T06:03:15;99388.50;;;16.52;79.33
16777;BME280;8505;49.456;8.164;2023-05-22T06:05:43;99389.06;;;16.61;79.83
16777;BME280;8505;49.456;8.164;2023-05-22T06:08:13;99398.88;;;16.67;79.19
16777;BME280;8505;49.456;8.164;2023-05-22T06:10:41;99388.63;;;16.89;79.10
16777;BME280;8505;49.456;8.164;2023-05-22T06:13:09;99393.75;;;16.90;78.49
16777;BME280;8505;49.456;8.164;2023-05-22T06:15:37;99401.50;;;16.74;79.06
16777;BME280;8505;49.456;8.164;2023-05-22T06:18:04;99401.13;;;16.70;79.89
16777;BME280;8505;49.456;8.164;2023-05-22T06:20:32;99398.03;;;16.91;78.89
16777;BME280;8505;49.456;8.164;2023-05-22T06:23:00;99397.41;;;16.96;78.86
16777;BME280;8505;49.456;8.164;2023-05-22T06:25:30;99406.94;;;16.85;79.06
16777;BME280;8505;49.456;8.164;2023-05-22T06:27:58;99408.16;;;16.89;79.32
16777;BME280;8505;49.456;8.164;2023-05-22T06:30:26;99396.88;;;17.06;78.69
16777;BME280;8505;49.456;8.164;2023-05-22T06:33:05;99396.38;;;17.15;78.41
16777;BME280;8505;49.456;8.164;2023-05-22T06:35:34;99396.66;;;17.44;77.37
16777;BME280;8505;49.456;8.164;2023-05-22T06:38:02;99402.16;;;17.67;76.33
16777;BME280;8505;49.456;8.164;2023-05-22T06:40:32;99393.28;;;17.85;75.54
16777;BME280;8505;49.456;8.164;2023-05-22T06:43:00;99400.25;;;18.15;74.93
16777;BME280;8505;49.456;8.164;2023-05-22T06:45:28;99401.06;;;18.04;74.90
16777;BME280;8505;49.456;8.164;2023-05-22T06:47:56;99401.84;;;18.35;73.76
16777;BME280;8505;49.456;8.164;2023-05-22T06:50:24;99409.44;;;18.38;74.15
16777;BME280;8505;49.456;8.164;2023-05-22T06:52:52;99405.56;;;18.64;73.17
16777;BME280;8505;49.456;8.164;2023-05-22T06:55:19;99405.88;;;18.90;72.56
16777;BME280;8505;49.456;8.164;2023-05-22T06:57:48;99401.06;;;19.27;71.41
16777;BME280;8505;49.456;8.164;2023-05-22T07:00:17;99403.09;;;19.72;70.05
16777;BME280;8505;49.456;8.164;2023-05-22T07:02:47;99401.84;;;19.74;69.69
16777;BME280;8505;49.456;8.164;2023-05-22T07:05:15;99406.00;;;20.10;68.73
16777;BME280;8505;49.456;8.164;2023-05-22T07:07:43;99408.19;;;20.58;67.53
16777;BME280;8505;49.456;8.164;2023-05-22T07:10:11;99403.78;;;21.03;65.59
16777;BME280;8505;49.456;8.164;2023-05-22T07:12:40;99408.91;;;21.43;64.85
16777;BME280;8505;49.456;8.164;2023-05-22T07:15:09;99401.78;;;21.53;63.17
16777;BME280;8505;49.456;8.164;2023-05-22T07:17:40;99402.66;;;21.59;62.58
16777;BME280;8505;49.456;8.164;2023-05-22T07:20:09;99408.94;;;21.64;61.39
16777;BME280;8505;49.456;8.164;2023-05-22T07:22:37;99407.31;;;22.12;60.03
16777;BME280;8505;49.456;8.164;2023-05-22T07:25:06;99413.41;;;22.29;59.80
16777;BME280;8505;49.456;8.164;2023-05-22T07:27:34;99415.03;;;22.89;57.88
16777;BME280;8505;49.456;8.164;2023-05-22T07:30:03;99408.69;;;23.10;56.71
16777;BME280;8505;49.456;8.164;2023-05-22T07:32:32;99417.25;;;23.44;55.82
16777;BME280;8505;49.456;8.164;2023-05-22T07:35:00;99413.00;;;23.06;56.12
16777;BME280;8505;49.456;8.164;2023-05-22T07:37:30;99419.06;;;23.33;55.94
16777;BME280;8505;49.456;8.164;2023-05-22T07:39:58;99411.84;;;23.44;55.39
16777;BME280;8505;49.456;8.164;2023-05-22T07:42:26;99410.81;;;23.50;55.08
16777;BME280;8505;49.456;8.164;2023-05-22T07:44:54;99410.69;;;23.87;54.41
16777;BME280;8505;49.456;8.164;2023-05-22T07:47:22;99418.69;;;23.57;55.32
16777;BME280;8505;49.456;8.164;2023-05-22T07:49:51;99418.28;;;23.33;55.59
16777;BME280;8505;49.456;8.164;2023-05-22T07:52:19;99407.41;;;23.70;54.86
16777;BME280;8505;49.456;8.164;2023-05-22T07:54:49;99409.44;;;23.48;55.82
16777;BME280;8505;49.456;8.164;2023-05-22T07:57:16;99413.41;;;23.35;56.33
16777;BME280;8505;49.456;8.164;2023-05-22T07:59:44;99422.59;;;23.91;55.30
16777;BME280;8505;49.456;8.164;2023-05-22T08:02:12;99417.84;;;24.34;54.00
16777;BME280;8505;49.456;8.164;2023-05-22T08:04:41;99417.69;;;23.78;55.35
16777;BME280;8505;49.456;8.164;2023-05-22T08:07:11;99429.91;;;23.96;55.51
16777;BME280;8505;49.456;8.164;2023-05-22T08:09:39;99422.66;;;24.11;54.82
16777;BME280;8505;49.456;8.164;2023-05-22T08:12:07;99418.25;;;23.90;54.69
16777;BME280;8505;49.456;8.164;2023-05-22T08:14:35;99434.91;;;24.29;54.39
16777;BME280;8505;49.456;8.164;2023-05-22T08:17:04;99428.16;;;24.47;53.99
16777;BME280;8505;49.456;8.164;2023-05-22T08:19:33;99428.16;;;24.47;53.52
16777;BME280;8505;49.456;8.164;2023-05-22T08:22:01;99424.63;;;24.31;53.86
16777;BME280;8505;49.456;8.164;2023-05-22T08:24:30;99419.22;;;24.41;54.35
16777;BME280;8505;49.456;8.164;2023-05-22T08:26:58;99428.41;;;24.45;54.56
16777;BME280;8505;49.456;8.164;2023-05-22T08:29:27;99420.03;;;24.42;54.57
16777;BME280;8505;49.456;8.164;2023-05-22T08:31:55;99425.28;;;23.81;56.25
16777;BME280;8505;49.456;8.164;2023-05-22T08:34:23;99425.09;;;24.18;55.54
16777;BME280;8505;49.456;8.164;2023-05-22T08:36:51;99422.19;;;24.70;54.27
16777;BME280;8505;49.456;8.164;2023-05-22T08:39:19;99421.06;;;25.27;51.57
16777;BME280;8505;49.456;8.164;2023-05-22T08:41:49;99418.13;;;24.47;54.65
16777;BME280;8505;49.456;8.164;2023-05-22T08:44:17;99417.84;;;25.15;53.10
16777;BME280;8505;49.456;8.164;2023-05-22T08:46:46;99412.44;;;24.79;54.16
16777;BME280;8505;49.456;8.164;2023-05-22T08:49:15;99406.22;;;24.94;53.67
16777;BME280;8505;49.456;8.164;2023-05-22T08:51:47;99409.47;;;24.66;53.63
16777;BME280;8505;49.456;8.164;2023-05-22T08:54:17;99399.66;;;25.20;52.27
16777;BME280;8505;49.456;8.164;2023-05-22T08:56:49;99405.66;;;25.17;53.27
16777;BME280;8505;49.456;8.164;2023-05-22T08:59:23;99411.81;;;25.38;52.51
16777;BME280;8505;49.456;8.164;2023-05-22T09:01:51;99402.81;;;25.53;52.04
16777;BME280;8505;49.456;8.164;2023-05-22T09:04:20;99406.84;;;25.70;51.45
16777;BME280;8505;49.456;8.164;2023-05-22T09:06:50;99406.59;;;25.52;52.03
16777;BME280;8505;49.456;8.164;2023-05-22T09:09:18;99409.63;;;25.40;51.91
16777;BME280;8505;49.456;8.164;2023-05-22T09:11:45;99402.09;;;25.27;52.38
16777;BME280;8505;49.456;8.164;2023-05-22T09:14:14;99401.50;;;25.99;50.33
16777;BME280;8505;49.456;8.164;2023-05-22T09:16:44;99406.94;;;25.40;51.98
16777;BME280;8505;49.456;8.164;2023-05-22T09:19:12;99388.72;;;26.05;51.54
16777;BME280;8505;49.456;8.164;2023-05-22T09:21:41;99395.69;;;26.94;48.88
16777;BME280;8505;49.456;8.164;2023-05-22T09:24:11;99393.16;;;27.50;46.70
16777;BME280;8505;49.456;8.164;2023-05-22T09:26:39;99396.66;;;27.56;46.63
16777;BME280;8505;49.456;8.164;2023-05-22T09:29:07;99395.03;;;27.55;47.32
16777;BME280;8505;49.456;8.164;2023-05-22T09:31:40;99393.84;;;27.37;47.63
16777;BME280;8505;49.456;8.164;2023-05-22T09:34:10;99392.88;;;27.75;47.01
16777;BME280;8505;49.456;8.164;2023-05-22T09:36:40;99399.03;;;26.81;47.95
16777;BME280;8505;49.456;8.164;2023-05-22T09:39:08;99400.59;;;26.19;50.05
16777;BME280;8505;49.456;8.164;2023-05-22T09:41:37;99396.84;;;26.83;48.53
16777;BME280;8505;49.456;8.164;2023-05-22T09:44:12;99391.31;;;27.46;47.26
16777;BME280;8505;49.456;8.164;2023-05-22T09:46:43;99398.69;;;27.16;47.97
16777;BME280;8505;49.456;8.164;2023-05-22T09:49:12;99391.19;;;26.45;49.28
16777;BME280;8505;49.456;8.164;2023-05-22T09:51:43;99399.25;;;26.89;48.63
16777;BME280;8505;49.456;8.164;2023-05-22T09:54:14;99391.78;;;26.71;48.71
16777;BME280;8505;49.456;8.164;2023-05-22T09:56:43;99389.34;;;27.27;48.21
16777;BME280;8505;49.456;8.164;2023-05-22T09:59:12;99387.97;;;27.54;47.53
16777;BME280;8505;49.456;8.164;2023-05-22T10:01:42;99380.66;;;27.49;47.39
16777;BME280;8505;49.456;8.164;2023-05-22T10:04:11;99383.56;;;27.58;45.80
16777;BME280;8505;49.456;8.164;2023-05-22T10:06:41;99379.28;;;27.52;46.58
16777;BME280;8505;49.456;8.164;2023-05-22T10:09:14;99378.41;;;27.32;47.78
16777;BME280;8505;49.456;8.164;2023-05-22T10:11:45;99369.91;;;27.82;45.62
16777;BME280;8505;49.456;8.164;2023-05-22T10:14:13;99372.94;;;27.99;45.64
16777;BME280;8505;49.456;8.164;2023-05-22T10:16:43;99373.22;;;27.97;46.04
16777;BME280;8505;49.456;8.164;2023-05-22T10:19:11;99370.56;;;27.92;46.58
16777;BME280;8505;49.456;8.164;2023-05-22T10:21:40;99369.56;;;28.58;44.69
16777;BME280;8505;49.456;8.164;2023-05-22T10:24:08;99360.34;;;28.22;45.75
16777;BME280;8505;49.456;8.164;2023-05-22T10:26:37;99371.31;;;28.35;44.75
16777;BME280;8505;49.456;8.164;2023-05-22T10:29:09;99363.94;;;27.80;46.91
16777;BME280;8505;49.456;8.164;2023-05-22T10:31:41;99372.63;;;28.38;45.43
16777;BME280;8505;49.456;8.164;2023-05-22T10:34:20;99367.09;;;28.43;45.41
16777;BME280;8505;49.456;8.164;2023-05-22T10:37:04;99358.88;;;29.08;43.99
16777;BME280;8505;49.456;8.164;2023-05-22T10:39:59;99365.13;;;29.08;44.07
16777;BME280;8505;49.456;8.164;2023-05-22T10:42:30;99358.50;;;29.42;42.57
16777;BME280;8505;49.456;8.164;2023-05-22T10:44:59;99352.91;;;29.60;42.80
16777;BME280;8505;49.456;8.164;2023-05-22T10:47:27;99360.91;;;29.29;41.92
16777;BME280;8505;49.456;8.164;2023-05-22T10:50:06;99346.00;;;29.76;41.81
16777;BME280;8505;49.456;8.164;2023-05-22T10:52:34;99347.25;;;29.16;43.34
16777;BME280;8505;49.456;8.164;2023-05-22T10:55:06;99349.97;;;28.24;44.90
16777;BME280;8505;49.456;8.164;2023-05-22T10:57:36;99348.47;;;29.10;43.54
16777;BME280;8505;49.456;8.164;2023-05-22T11:00:07;99345.34;;;28.70;44.69
16777;BME280;8505;49.456;8.164;2023-05-22T11:02:39;99341.56;;;29.81;42.15
16777;BME280;8505;49.456;8.164;2023-05-22T11:05:34;99331.06;;;29.74;42.20
16777;BME280;8505;49.456;8.164;2023-05-22T11:10:52;99328.28;;;29.11;43.85
16777;BME280;8505;49.456;8.164;2023-05-22T11:13:20;99327.03;;;28.89;44.08
16777;BME280;8505;49.456;8.164;2023-05-22T11:15:54;99326.56;;;29.42;43.36
16777;BME280;8505;49.456;8.164;2023-05-22T11:18:23;99322.34;;;30.08;40.79
16777;BME280;8505;49.456;8.164;2023-05-22T11:20:58;99315.75;;;29.87;41.44
16777;BME280;8505;49.456;8.164;2023-05-22T11:23:26;99312.66;;;30.02;41.10
16777;BME280;8505;49.456;8.164;2023-05-22T11:26:16;99306.41;;;29.88;41.96
16777;BME280;8505;49.456;8.164;2023-05-22T11:28:48;99320.31;;;29.01;43.89
16777;BME280;8505;49.456;8.164;2023-05-22T11:31:18;99317.47;;;27.95;45.70
16777;BME280;8505;49.456;8.164;2023-05-22T11:33:49;99315.09;;;27.88;46.37
16777;BME280;8505;49.456;8.164;2023-05-22T11:36:21;99311.88;;;28.37;45.06
16777;BME280;8505;49.456;8.164;2023-05-22T11:38:49;99309.88;;;28.89;44.00
16777;BME280;8505;49.456;8.164;2023-05-22T11:41:17;99304.47;;;28.70;44.28
16777;BME280;8505;49.456;8.164;2023-05-22T11:43:46;99309.19;;;28.65;44.14
16777;BME280;8505;49.456;8.164;2023-05-22T11:46:15;99307.47;;;28.55;45.09
16777;BME280;8505;49.456;8.164;2023-05-22T11:48:43;99300.44;;;28.22;45.94
16777;BME280;8505;49.456;8.164;2023-05-22T11:51:11;99295.09;;;27.79;47.27
16777;BME280;8505;49.456;8.164;2023-05-22T11:53:40;99309.22;;;27.62;47.34
16777;BME280;8505;49.456;8.164;2023-05-22T11:56:08;99309.13;;;27.86;47.72
16777;BME280;8505;49.456;8.164;2023-05-22T11:58:36;99315.81;;;26.90;51.07
16777;BME280;8505;49.456;8.164;2023-05-22T12:01:05;99321.22;;;26.61;54.96
16777;BME280;8505;49.456;8.164;2023-05-22T12:03:33;99316.59;;;26.62;55.96
16777;BME280;8505;49.456;8.164;2023-05-22T12:06:01;99313.84;;;26.38;59.60
16777;BME280;8505;49.456;8.164;2023-05-22T12:08:29;99303.31;;;26.31;59.00
16777;BME280;8505;49.456;8.164;2023-05-22T12:10:59;99301.34;;;26.37;59.78
16777;BME280;8505;49.456;8.164;2023-05-22T12:13:28;99297.13;;;26.21;61.10
16777;BME280;8505;49.456;8.164;2023-05-22T12:15:57;99298.75;;;26.22;60.99
16777;BME280;8505;49.456;8.164;2023-05-22T12:18:26;99312.03;;;26.28;61.98
16777;BME280;8505;49.456;8.164;2023-05-22T12:20:54;99319.94;;;25.81;65.74
16777;BME280;8505;49.456;8.164;2023-05-22T12:23:23;99324.56;;;25.80;64.63
16777;BME280;8505;49.456;8.164;2023-05-22T12:26:07;99323.75;;;25.85;63.84
16777;BME280;8505;49.456;8.164;2023-05-22T12:28:37;99318.63;;;25.78;65.40
16777;BME280;8505;49.456;8.164;2023-05-22T12:31:05;99313.13;;;25.88;64.31
16777;BME280;8505;49.456;8.164;2023-05-22T12:33:33;99311.25;;;25.84;64.09
16777;BME280;8505;49.456;8.164;2023-05-22T12:36:06;99315.00;;;25.38;66.80
16777;BME280;8505;49.456;8.164;2023-05-22T12:38:36;99309.75;;;25.62;68.48
16777;BME280;8505;49.456;8.164;2023-05-22T12:41:06;99311.78;;;25.31;71.88
16777;BME280;8505;49.456;8.164;2023-05-22T12:43:34;99314.78;;;25.30;73.65
16777;BME280;8505;49.456;8.164;2023-05-22T12:46:02;99305.06;;;25.24;71.60
16777;BME280;8505;49.456;8.164;2023-05-22T12:48:30;99309.47;;;24.94;70.92
16777;BME280;8505;49.456;8.164;2023-05-22T12:50:57;99323.63;;;24.56;72.47
16777;BME280;8505;49.456;8.164;2023-05-22T12:53:25;99321.69;;;23.91;74.93
16777;BME280;8505;49.456;8.164;2023-05-22T12:55:53;99323.88;;;23.94;72.67
16777;BME280;8505;49.456;8.164;2023-05-22T12:58:22;99325.75;;;23.88;72.01
16777;BME280;8505;49.456;8.164;2023-05-22T13:00:50;99313.53;;;23.65;73.17
16777;BME280;8505;49.456;8.164;2023-05-22T13:03:18;99311.66;;;23.71;74.33
16777;BME280;8505;49.456;8.164;2023-05-22T13:05:46;99313.84;;;23.84;75.18
16777;BME280;8505;49.456;8.164;2023-05-22T13:08:14;99301.63;;;23.56;74.52
16777;BME280;8505;49.456;8.164;2023-05-22T13:10:42;99307.66;;;23.16;75.37
16777;BME280;8505;49.456;8.164;2023-05-22T13:13:10;99304.13;;;23.11;75.31
16777;BME280;8505;49.456;8.164;2023-05-22T13:15:39;99303.84;;;23.02;78.31
16777;BME280;8505;49.456;8.164;2023-05-22T13:18:06;99301.88;;;22.92;78.70
16777;BME280;8505;49.456;8.164;2023-05-22T13:20:37;99298.56;;;22.38;79.85
16777;BME280;8505;49.456;8.164;2023-05-22T13:23:05;99303.34;;;22.31;81.39
16777;BME280;8505;49.456;8.164;2023-05-22T13:25:33;99298.53;;;22.33;80.62